Time;durP1;ratioP1;P1;durP2;ratioP2;P2;SDS_P1;SDS_P2;PMS_P1;PMS_P2;Temp;Humidity;BMP_temperature;BMP_pressure;BME280_temperature;BME280_humidity;BME280_pressure;Samples;Min_cycle;Max_cycle;Signal;HPM_P1;HPM_P2
2022/04/14 00:00:13;;;;;;;13.27;6.05;;;11.50;99.90;;;;;;4911384;29;20040;-88
2022/04/14 00:02:39;;;;;;;12.25;5.80;;;11.50;99.90;;;;;;4879364;29;20060;-89
2022/04/14 00:05:06;;;;;;;12.60;6.10;;;11.50;99.90;;;;;;4875704;29;20114;-91
2022/04/14 00:07:31;;;;;;;12.80;6.57;;;11.50;99.90;;;;;;4864338;29;20131;-88
2022/04/14 00:09:57;;;;;;;14.52;6.47;;;11.50;99.90;;;;;;4895609;29;20115;-89
2022/04/14 00:12:23;;;;;;;13.48;6.53;;;11.50;99.90;;;;;;4885557;29;20541;-88
2022/04/14 00:14:49;;;;;;;12.20;6.30;;;11.40;99.90;;;;;;4902906;29;20083;-87
2022/04/14 00:17:14;;;;;;;15.70;7.07;;;11.40;99.90;;;;;;4919958;29;20049;-88
2022/04/14 00:19:40;;;;;;;14.23;7.20;;;11.50;99.90;;;;;;4895494;29;20044;-88
2022/04/14 00:22:07;;;;;;;16.25;7.00;;;11.50;99.90;;;;;;4878914;29;20200;-87
2022/04/14 00:24:33;;;;;;;16.48;7.32;;;11.40;99.90;;;;;;4878991;29;20120;-89
2022/04/14 00:26:58;;;;;;;14.18;6.93;;;11.40;99.90;;;;;;4893616;29;20123;-88
2022/04/14 00:29:24;;;;;;;14.95;7.38;;;12.20;99.90;;;;;;4891947;29;20130;-89
2022/04/14 00:31:50;;;;;;;15.45;7.05;;;11.40;99.90;;;;;;4894485;29;20128;-89
2022/04/14 00:34:16;;;;;;;12.98;6.60;;;11.40;99.90;;;;;;4881661;29;20540;-88
2022/04/14 00:36:42;;;;;;;13.25;7.53;;;11.30;99.90;;;;;;4879198;29;20044;-88
2022/04/14 00:39:09;;;;;;;15.95;7.38;;;11.30;99.90;;;;;;4878748;29;20402;-89
2022/04/14 00:41:38;;;;;;;14.52;7.63;;;11.30;99.90;;;;;;4894769;29;20385;-88
2022/04/14 00:44:04;;;;;;;14.88;8.00;;;11.30;99.90;;;;;;4893408;29;20052;-87
2022/04/14 00:46:30;;;;;;;14.98;7.85;;;11.30;99.90;;;;;;4878892;29;20052;-88
2022/04/14 00:48:56;;;;;;;18.45;8.07;;;11.20;99.90;;;;;;4876409;29;20060;-88
2022/04/14 00:51:22;;;;;;;15.48;8.20;;;11.20;99.90;;;;;;4879056;29;20050;-88
2022/04/14 00:53:47;;;;;;;14.57;8.00;;;11.20;99.90;;;;;;4888470;29;20413;-89
2022/04/14 00:56:13;;;;;;;15.15;8.27;;;11.20;99.90;;;;;;4878733;29;20048;-88
2022/04/14 00:58:40;;;;;;;14.25;7.75;;;11.10;99.90;;;;;;4879507;29;20050;-89
2022/04/14 01:01:07;;;;;;;15.35;8.23;;;11.10;99.90;;;;;;4879562;29;20040;-89
2022/04/14 01:03:34;;;;;;;15.43;7.85;;;11.10;99.90;;;;;;4877893;29;20064;-89
2022/04/14 01:06:00;;;;;;;16.25;8.73;;;11.10;99.90;;;;;;4878961;29;20076;-89
2022/04/14 01:08:32;;;;;;;16.38;8.18;;;11.00;99.90;;;;;;4912981;29;20124;-88
2022/04/14 01:10:59;;;;;;;14.98;8.32;;;11.00;99.90;;;;;;4882862;29;20120;-88
2022/04/14 01:13:25;;;;;;;16.35;8.75;;;11.00;99.90;;;;;;4892661;29;20097;-87
2022/04/14 01:15:57;;;;;;;15.20;8.07;;;11.00;99.90;;;;;;4894917;29;20052;-88
2022/04/14 01:18:22;;;;;;;16.92;8.15;;;10.90;99.90;;;;;;4894267;29;20083;-88
2022/04/14 01:20:48;;;;;;;14.65;8.32;;;10.90;99.90;;;;;;4878233;29;20072;-88
2022/04/14 01:23:18;;;;;;;16.30;8.75;;;10.90;99.90;;;;;;4881115;29;20040;-88
2022/04/14 01:25:44;;;;;;;18.05;9.35;;;10.90;99.90;;;;;;4910438;29;20044;-88
2022/04/14 01:28:10;;;;;;;16.90;9.05;;;10.90;99.90;;;;;;4848041;29;20051;-88
2022/04/14 01:30:36;;;;;;;17.63;9.68;;;10.80;99.90;;;;;;4880580;29;20040;-89
2022/04/14 01:33:02;;;;;;;16.70;9.57;;;10.80;99.90;;;;;;4878087;29;20096;-88
2022/04/14 01:35:28;;;;;;;18.05;9.38;;;10.80;99.90;;;;;;4878335;29;20486;-88
2022/04/14 01:37:54;;;;;;;17.55;9.63;;;10.80;99.90;;;;;;4893705;29;20047;-88
2022/04/14 01:40:20;;;;;;;16.27;8.98;;;10.80;99.90;;;;;;4886164;29;20047;-89
2022/04/14 01:42:46;;;;;;;16.10;9.10;;;10.80;99.90;;;;;;4896927;29;20040;-88
2022/04/14 01:45:12;;;;;;;15.93;8.45;;;10.80;99.90;;;;;;4896600;29;20096;-87
2022/04/14 01:47:39;;;;;;;17.27;9.80;;;10.70;99.90;;;;;;4876954;29;20100;-88
2022/04/14 01:50:07;;;;;;;21.70;9.57;;;10.70;99.90;;;;;;4878314;29;20051;-88
2022/04/14 01:52:33;;;;;;;16.60;8.90;;;10.70;99.90;;;;;;4879125;29;20047;-89
2022/04/14 01:54:59;;;;;;;15.80;8.85;;;10.70;99.90;;;;;;4879196;29;20052;-89
2022/04/14 01:57:25;;;;;;;15.00;8.98;;;10.60;99.90;;;;;;4867340;29;20048;-89
2022/04/14 01:59:50;;;;;;;15.82;8.98;;;10.60;99.90;;;;;;4866114;29;20099;-89
2022/04/14 02:02:16;;;;;;;18.67;8.93;;;10.60;99.90;;;;;;4913601;29;20447;-89
2022/04/14 02:04:42;;;;;;;17.20;9.23;;;10.50;99.90;;;;;;4881514;29;20494;-89
2022/04/14 02:07:09;;;;;;;16.17;8.68;;;10.50;99.90;;;;;;4881995;29;20048;-89
2022/04/14 02:09:35;;;;;;;16.90;9.45;;;10.50;99.90;;;;;;4896924;29;20076;-88
2022/04/14 02:12:03;;;;;;;15.35;8.70;;;10.40;99.90;;;;;;4882425;29;20036;-88
2022/04/14 02:14:29;;;;;;;16.48;8.90;;;10.40;99.90;;;;;;4875177;29;20044;-89
2022/04/14 02:16:55;;;;;;;14.77;8.40;;;10.40;99.90;;;;;;4881891;29;20401;-89
2022/04/14 02:19:21;;;;;;;16.13;9.05;;;10.40;99.90;;;;;;4897239;29;20050;-88
2022/04/14 02:21:47;;;;;;;15.43;8.50;;;10.30;99.90;;;;;;4897283;29;20048;-88
2022/04/14 02:24:12;;;;;;;20.73;10.18;;;10.30;99.90;;;;;;4900467;29;20135;-88
2022/04/14 02:26:38;;;;;;;15.35;8.52;;;10.30;99.90;;;;;;4897223;29;20052;-88
2022/04/14 02:29:04;;;;;;;17.95;9.35;;;10.20;99.90;;;;;;4881549;29;20084;-89
2022/04/14 02:31:29;;;;;;;17.27;9.27;;;10.20;99.90;;;;;;4896492;29;20045;-88
2022/04/14 02:33:55;;;;;;;15.07;8.65;;;10.20;99.90;;;;;;4881549;29;20051;-89
2022/04/14 02:36:21;;;;;;;17.38;9.70;;;10.20;99.90;;;;;;4881722;29;20045;-88
2022/04/14 02:38:46;;;;;;;18.90;9.32;;;10.10;99.90;;;;;;4880699;29;20056;-88
2022/04/14 02:41:12;;;;;;;17.65;9.10;;;10.10;99.90;;;;;;4881787;29;20083;-89
2022/04/14 02:43:38;;;;;;;18.17;9.05;;;10.10;99.90;;;;;;4898281;29;20040;-89
2022/04/14 02:46:04;;;;;;;16.70;10.25;;;10.90;99.90;;;;;;4913147;29;20040;-88
2022/04/14 02:48:31;;;;;;;17.55;9.80;;;10.00;99.90;;;;;;4880603;29;20068;-89
2022/04/14 02:50:57;;;;;;;18.00;10.18;;;10.00;99.90;;;;;;4881497;29;20423;-89
2022/04/14 02:53:23;;;;;;;20.42;10.90;;;10.00;99.90;;;;;;4879236;29;20055;-89
2022/04/14 02:55:49;;;;;;;17.60;10.27;;;10.00;99.90;;;;;;4882498;29;20044;-88
2022/04/14 02:58:14;;;;;;;19.15;10.57;;;9.90;99.90;;;;;;4862283;29;20037;-89
2022/04/14 03:00:40;;;;;;;16.52;9.80;;;9.90;99.90;;;;;;4880353;29;20048;-89
2022/04/14 03:03:06;;;;;;;19.52;11.52;;;9.90;99.90;;;;;;4894555;29;20117;-89
2022/04/14 03:05:32;;;;;;;18.98;10.38;;;9.90;99.90;;;;;;4880473;29;20059;-89
2022/04/14 03:07:57;;;;;;;18.27;10.27;;;9.80;99.90;;;;;;4881800;29;20486;-89
2022/04/14 03:10:23;;;;;;;18.35;10.40;;;9.80;99.90;;;;;;4919390;29;20506;-88
2022/04/14 03:12:51;;;;;;;18.13;10.88;;;9.80;99.90;;;;;;4881424;29;20028;-89
2022/04/14 03:15:17;;;;;;;17.90;11.30;;;9.80;99.90;;;;;;4897020;29;20085;-89
2022/04/14 03:17:44;;;;;;;22.73;11.07;;;9.70;99.90;;;;;;4899285;29;20048;-88
2022/04/14 03:20:10;;;;;;;19.60;11.35;;;9.70;99.90;;;;;;4896430;29;20048;-89
2022/04/14 03:22:36;;;;;;;19.90;11.57;;;9.70;99.90;;;;;;4880597;29;20072;-88
2022/04/14 03:25:07;;;;;;;18.65;11.30;;;9.70;99.90;;;;;;4896268;29;20489;-88
2022/04/14 03:27:33;;;;;;;23.23;14.30;;;9.60;99.90;;;;;;4880470;29;20518;-89
2022/04/14 03:29:59;;;;;;;22.40;13.10;;;9.60;99.90;;;;;;4896438;29;20029;-89
2022/04/14 03:32:25;;;;;;;22.50;13.25;;;9.60;99.90;;;;;;4912989;29;20096;-88
2022/04/14 03:34:54;;;;;;;22.50;13.80;;;9.80;99.90;;;;;;4905186;29;20108;-87
2022/04/14 03:37:20;;;;;;;23.95;15.70;;;9.50;99.90;;;;;;4879853;29;20036;-88
2022/04/14 03:39:46;;;;;;;24.70;13.82;;;9.50;99.90;;;;;;4895298;29;20040;-88
2022/04/14 03:42:12;;;;;;;23.20;14.40;;;10.40;99.90;;;;;;4881485;29;20051;-88
2022/04/14 03:44:38;;;;;;;25.92;15.68;;;9.40;99.90;;;;;;4864595;29;20062;-89
2022/04/14 03:47:04;;;;;;;24.00;15.32;;;9.40;99.90;;;;;;4897487;29;20486;-88
2022/04/14 03:49:30;;;;;;;26.10;14.68;;;9.50;99.90;;;;;;4876364;29;20513;-88
2022/04/14 03:51:55;;;;;;;24.10;15.07;;;9.60;99.90;;;;;;4894954;29;20037;-89
2022/04/14 03:54:21;;;;;;;25.58;14.90;;;9.40;99.90;;;;;;4895926;29;20094;-88
2022/04/14 03:56:48;;;;;;;24.55;15.25;;;9.40;99.90;;;;;;4874740;29;20044;-88
2022/04/14 03:59:15;;;;;;;24.83;15.23;;;9.30;99.90;;;;;;4880555;29;20036;-89
2022/04/14 04:01:41;;;;;;;28.73;15.90;;;9.40;99.90;;;;;;4879411;29;20078;-89
2022/04/14 04:04:06;;;;;;;26.83;15.23;;;9.60;99.90;;;;;;4880036;29;20060;-89
2022/04/14 04:06:32;;;;;;;25.13;14.75;;;9.30;99.90;;;;;;4879613;29;20061;-88
2022/04/14 04:08:58;;;;;;;24.40;15.10;;;9.30;99.90;;;;;;4880020;29;20036;-88
2022/04/14 04:11:24;;;;;;;27.02;15.57;;;9.20;99.90;;;;;;4879117;29;20047;-88
2022/04/14 04:13:49;;;;;;;23.73;15.18;;;9.20;99.90;;;;;;4892307;29;20044;-89
2022/04/14 04:16:15;;;;;;;25.38;16.67;;;9.30;99.90;;;;;;4892314;29;20048;-88
2022/04/14 04:18:41;;;;;;;26.05;16.42;;;9.20;99.90;;;;;;4865885;29;20041;-87
2022/04/14 04:21:06;;;;;;;28.88;17.60;;;9.20;99.90;;;;;;4879436;29;20047;-87
2022/04/14 04:23:32;;;;;;;28.90;17.80;;;9.20;99.90;;;;;;4895261;29;20062;-88
2022/04/14 04:25:58;;;;;;;26.38;16.90;;;9.10;99.90;;;;;;4894989;29;20052;-88
2022/04/14 04:28:30;;;;;;;25.45;16.30;;;9.10;99.90;;;;;;4895659;29;20047;-88
2022/04/14 04:30:56;;;;;;;29.37;17.87;;;9.10;99.90;;;;;;4892927;29;20040;-88
2022/04/14 04:33:22;;;;;;;27.45;16.05;;;9.10;99.90;;;;;;4878998;29;20541;-88
2022/04/14 04:35:50;;;;;;;28.08;16.90;;;9.10;99.90;;;;;;4895348;29;20136;-88
2022/04/14 04:38:16;;;;;;;30.02;19.20;;;9.00;99.90;;;;;;4896001;29;20127;-88
2022/04/14 04:40:41;;;;;;;28.35;18.60;;;9.00;99.90;;;;;;4879200;29;20089;-88
2022/04/14 04:43:09;;;;;;;29.85;17.90;;;9.00;99.90;;;;;;4894119;29;20122;-87
2022/04/14 04:45:35;;;;;;;27.60;16.88;;;9.30;99.90;;;;;;4873721;29;20096;-88
2022/04/14 04:48:02;;;;;;;29.40;18.63;;;9.00;99.90;;;;;;4879877;29;20040;-88
2022/04/14 04:50:28;;;;;;;28.08;19.10;;;9.00;99.90;;;;;;4878415;29;20040;-88
2022/04/14 04:52:54;;;;;;;31.75;19.30;;;9.00;99.90;;;;;;4895152;29;20100;-88
2022/04/14 04:55:20;;;;;;;27.13;17.80;;;9.00;99.90;;;;;;4879541;29;20044;-89
2022/04/14 04:57:46;;;;;;;27.48;17.92;;;9.00;99.90;;;;;;4892826;29;20046;-89
2022/04/14 05:00:12;;;;;;;30.23;18.77;;;8.90;99.90;;;;;;4877979;29;20407;-88
2022/04/14 05:02:38;;;;;;;29.08;18.58;;;8.90;99.90;;;;;;4846979;29;20061;-88
2022/04/14 05:05:04;;;;;;;32.83;19.63;;;8.90;99.90;;;;;;4878483;29;20052;-89
2022/04/14 05:07:30;;;;;;;29.77;19.02;;;8.90;99.90;;;;;;4879925;29;20359;-88
2022/04/14 05:09:56;;;;;;;31.80;20.08;;;8.90;99.90;;;;;;4911068;29;20036;-89
2022/04/14 05:12:21;;;;;;;30.30;18.83;;;9.40;99.90;;;;;;4879040;29;20040;-89
2022/04/14 05:14:47;;;;;;;28.80;19.77;;;8.90;99.90;;;;;;4892056;29;20784;-88
2022/04/14 05:17:13;;;;;;;27.38;19.00;;;8.90;99.90;;;;;;4881246;29;20040;-88
2022/04/14 05:19:39;;;;;;;31.02;20.23;;;9.40;99.90;;;;;;4863469;29;20044;-88
2022/04/14 05:22:05;;;;;;;34.85;21.23;;;9.00;99.90;;;;;;4878118;29;20036;-89
2022/04/14 05:24:31;;;;;;;32.08;19.73;;;9.00;99.90;;;;;;4880714;29;20040;-88
2022/04/14 05:26:57;;;;;;;32.88;19.90;;;9.30;99.90;;;;;;4909716;29;20411;-89
2022/04/14 05:29:23;;;;;;;35.05;21.63;;;9.80;99.90;;;;;;4879829;29;20040;-89
2022/04/14 05:31:49;;;;;;;36.28;22.90;;;9.20;99.90;;;;;;4897291;29;20046;-88
2022/04/14 05:34:15;;;;;;;33.20;21.85;;;9.20;99.90;;;;;;4883716;29;20037;-87
2022/04/14 05:36:40;;;;;;;38.85;22.58;;;9.30;99.90;;;;;;4885549;29;20047;-88
2022/04/14 05:39:06;;;;;;;33.17;21.80;;;9.40;99.90;;;;;;4879889;29;20459;-89
2022/04/14 05:41:32;;;;;;;32.28;20.92;;;9.40;99.90;;;;;;4882995;29;20056;-88
2022/04/14 05:43:58;;;;;;;35.40;23.05;;;9.50;99.90;;;;;;4879296;29;20041;-89
2022/04/14 05:46:24;;;;;;;32.55;22.35;;;9.80;99.90;;;;;;4884319;29;20136;-89
2022/04/14 05:48:51;;;;;;;35.33;22.40;;;9.70;99.90;;;;;;4885824;29;20047;-88
2022/04/14 05:51:17;;;;;;;30.70;20.98;;;9.70;99.90;;;;;;4897955;29;20052;-89
2022/04/14 05:53:43;;;;;;;31.23;22.08;;;9.80;99.90;;;;;;4881639;29;20056;-89
2022/04/14 05:56:08;;;;;;;33.72;22.25;;;10.10;99.90;;;;;;4881933;29;20044;-89
2022/04/14 05:58:34;;;;;;;35.67;23.25;;;10.10;99.90;;;;;;4898161;29;20052;-89
2022/04/14 06:01:00;;;;;;;34.40;23.10;;;10.10;99.90;;;;;;4897923;29;20656;-88
2022/04/14 06:03:26;;;;;;;33.10;22.40;;;10.20;99.90;;;;;;4882078;29;20068;-88
2022/04/14 06:05:52;;;;;;;36.35;23.38;;;10.30;99.90;;;;;;4885569;29;20048;-89
2022/04/14 06:08:19;;;;;;;37.78;24.23;;;10.40;99.90;;;;;;4881421;29;20177;-88
2022/04/14 06:10:45;;;;;;;34.90;22.35;;;10.50;99.90;;;;;;4881523;29;20044;-88
2022/04/14 06:13:13;;;;;;;35.30;23.83;;;10.50;99.90;;;;;;4897214;29;20387;-88
2022/04/14 06:15:39;;;;;;;31.65;22.10;;;10.60;99.90;;;;;;4881426;29;20494;-88
2022/04/14 06:18:05;;;;;;;35.55;22.73;;;10.60;99.90;;;;;;4897970;29;20088;-88
2022/04/14 06:20:31;;;;;;;34.58;22.67;;;10.70;99.90;;;;;;4872023;29;20075;-87
2022/04/14 06:22:58;;;;;;;32.47;20.92;;;10.80;99.90;;;;;;4862872;29;20239;-87
2022/04/14 06:25:24;;;;;;;33.85;23.05;;;10.80;99.90;;;;;;4863091;29;20937;-87
2022/04/14 06:27:51;;;;;;;36.88;22.67;;;10.90;99.90;;;;;;4885079;29;20481;-88
2022/04/14 06:30:19;;;;;;;35.05;22.85;;;11.00;99.90;;;;;;4912432;29;20043;-88
2022/04/14 06:33:05;;;;;;;30.08;20.92;;;11.10;99.90;;;;;;4864549;29;20044;-86
2022/04/14 06:35:30;;;;;;;33.67;21.98;;;11.20;99.90;;;;;;4917107;29;20055;-87
2022/04/14 06:37:57;;;;;;;33.47;21.20;;;11.30;99.90;;;;;;4906520;29;20040;-88
2022/04/14 06:40:23;;;;;;;31.75;21.33;;;11.40;99.90;;;;;;4894944;29;20052;-88
2022/04/14 06:42:49;;;;;;;30.65;19.85;;;11.50;99.90;;;;;;4894902;29;20044;-87
2022/04/14 06:45:16;;;;;;;31.52;20.02;;;11.60;99.90;;;;;;4879066;29;20072;-87
2022/04/14 06:47:42;;;;;;;28.85;19.48;;;11.60;99.90;;;;;;4895454;29;20135;-87
2022/04/14 06:50:08;;;;;;;32.10;20.92;;;11.70;99.90;;;;;;4891766;29;20071;-88
2022/04/14 06:52:34;;;;;;;31.67;20.52;;;11.80;99.90;;;;;;4910782;29;20405;-88
2022/04/14 06:55:00;;;;;;;30.02;20.23;;;11.80;99.90;;;;;;4879560;29;20037;-87
2022/04/14 06:57:26;;;;;;;29.13;20.38;;;11.90;99.90;;;;;;4895134;29;20048;-88
2022/04/14 06:59:52;;;;;;;28.30;19.50;;;12.00;99.90;;;;;;4879263;29;20045;-87
2022/04/14 07:02:17;;;;;;;27.55;19.30;;;12.10;99.90;;;;;;4863083;29;20062;-88
2022/04/14 07:04:43;;;;;;;27.05;18.05;;;12.20;99.90;;;;;;4864164;29;20558;-88
2022/04/14 07:07:09;;;;;;;29.92;17.40;;;12.30;99.90;;;;;;4879106;29;20049;-88
2022/04/14 07:09:36;;;;;;;26.88;17.17;;;12.40;99.90;;;;;;4879512;29;20050;-88
2022/04/14 07:12:03;;;;;;;25.65;15.40;;;12.50;99.90;;;;;;4909503;29;20128;-87
2022/04/14 07:14:30;;;;;;;24.73;14.90;;;12.60;99.90;;;;;;4878671;29;20492;-88
2022/04/14 07:16:57;;;;;;;21.27;13.63;;;12.70;99.90;;;;;;4878336;29;20040;-88
2022/04/14 07:19:23;;;;;;;23.60;14.73;;;12.80;99.90;;;;;;4891920;29;20052;-88
2022/04/14 07:21:48;;;;;;;22.45;14.02;;;12.80;99.90;;;;;;4875235;29;20062;-87
2022/04/14 07:24:14;;;;;;;21.30;13.38;;;12.90;99.90;;;;;;4911584;29;20036;-87
2022/04/14 07:26:40;;;;;;;20.92;14.57;;;13.00;99.90;;;;;;4883847;29;20063;-88
2022/04/14 07:29:06;;;;;;;22.48;15.05;;;13.10;99.90;;;;;;4894568;29;20040;-88
2022/04/14 07:31:31;;;;;;;22.02;14.60;;;13.20;99.90;;;;;;4878251;29;20051;-87
2022/04/14 07:34:00;;;;;;;23.27;14.68;;;13.30;99.90;;;;;;4909852;29;20161;-88
2022/04/14 07:36:26;;;;;;;22.00;14.80;;;13.40;99.90;;;;;;4908809;29;20048;-88
2022/04/14 07:38:52;;;;;;;21.55;14.55;;;13.50;99.90;;;;;;4886595;29;20040;-87
2022/04/14 07:41:18;;;;;;;20.65;14.32;;;13.60;99.90;;;;;;4879758;29;20390;-88
2022/04/14 07:43:44;;;;;;;23.75;14.82;;;13.60;99.90;;;;;;4892820;29;20050;-88
2022/04/14 07:46:10;;;;;;;19.90;13.77;;;13.70;99.90;;;;;;4878458;29;20032;-88
2022/04/14 07:48:35;;;;;;;20.40;14.30;;;13.80;99.90;;;;;;4878429;29;20069;-89
2022/04/14 07:51:02;;;;;;;22.45;14.40;;;13.80;99.90;;;;;;4878027;29;20032;-88
2022/04/14 07:53:28;;;;;;;22.27;14.55;;;13.90;99.90;;;;;;4893048;29;20045;-88
2022/04/14 07:55:54;;;;;;;25.08;14.98;;;14.00;99.90;;;;;;4877681;29;20040;-90
2022/04/14 07:58:20;;;;;;;22.02;14.98;;;14.00;99.90;;;;;;4878257;29;20044;-89
2022/04/14 08:00:46;;;;;;;23.02;14.90;;;14.10;99.90;;;;;;4878749;29;20049;-90
2022/04/14 08:03:13;;;;;;;24.48;15.43;;;14.20;99.90;;;;;;4878079;29;20067;-90
2022/04/14 08:05:43;;;;;;;23.45;15.55;;;14.20;99.90;;;;;;4890513;29;20056;-90
2022/04/14 08:08:14;;;;;;;23.38;15.13;;;14.30;99.90;;;;;;4878405;29;20066;-90
2022/04/14 08:10:42;;;;;;;23.88;15.88;;;14.40;99.90;;;;;;4893932;29;20036;-89
2022/04/14 08:13:08;;;;;;;25.55;16.15;;;14.40;99.90;;;;;;4875442;29;20038;-89
2022/04/14 08:15:34;;;;;;;23.15;15.60;;;14.50;99.90;;;;;;4877887;29;20464;-89
2022/04/14 08:18:00;;;;;;;21.08;14.13;;;14.50;99.90;;;;;;4873971;29;20423;-90
2022/04/14 08:20:26;;;;;;;24.20;15.65;;;14.60;99.90;;;;;;4893274;29;20041;-90
2022/04/14 08:22:54;;;;;;;22.45;16.02;;;14.80;99.90;;;;;;4878484;29;20044;-89
2022/04/14 08:25:25;;;;;;;23.90;15.43;;;14.90;99.90;;;;;;4884055;29;20426;-90
2022/04/14 08:27:55;;;;;;;22.67;14.30;;;15.00;99.90;;;;;;4891459;29;20044;-90
2022/04/14 08:30:23;;;;;;;21.88;14.40;;;15.10;99.90;;;;;;4894897;29;20040;-89
2022/04/14 08:32:51;;;;;;;20.48;14.55;;;15.10;99.90;;;;;;4893844;29;20068;-89
2022/04/14 08:35:19;;;;;;;22.85;14.60;;;15.20;99.90;;;;;;4893629;29;20132;-89
2022/04/14 08:37:46;;;;;;;20.48;14.52;;;15.30;99.90;;;;;;4902735;29;20048;-89
2022/04/14 08:40:18;;;;;;;24.10;15.52;;;15.40;99.90;;;;;;4865560;29;20586;-88
2022/04/14 08:42:52;;;;;;;20.45;14.85;;;15.40;99.90;;;;;;4893068;29;20053;-89
2022/04/14 08:45:21;;;;;;;20.90;15.00;;;15.50;99.90;;;;;;4908879;29;20075;-88
2022/04/14 08:47:50;;;;;;;20.52;14.25;;;15.50;99.90;;;;;;4893688;29;20177;-88
2022/04/14 08:50:16;;;;;;;20.80;14.00;;;15.60;99.90;;;;;;4907369;29;20525;-88
2022/04/14 08:52:43;;;;;;;21.52;15.18;;;15.60;99.90;;;;;;4896879;29;20036;-90
2022/04/14 08:55:14;;;;;;;20.27;14.05;;;15.70;99.90;;;;;;4893455;29;20546;-89
2022/04/14 08:57:43;;;;;;;19.92;13.75;;;15.80;99.90;;;;;;4893902;29;20402;-89
2022/04/14 09:00:16;;;;;;;20.95;14.13;;;15.90;99.90;;;;;;4889564;29;20120;-89
2022/04/14 09:02:45;;;;;;;20.02;13.68;;;16.00;99.90;;;;;;4893410;29;20414;-89
2022/04/14 09:05:13;;;;;;;19.77;14.13;;;16.10;99.90;;;;;;4892438;29;20052;-90
2022/04/14 09:07:38;;;;;;;19.55;14.35;;;16.10;99.90;;;;;;4877449;29;20037;-89
2022/04/14 09:10:06;;;;;;;19.58;13.95;;;16.20;99.90;;;;;;4877375;29;20116;-89
2022/04/14 09:12:35;;;;;;;20.40;14.40;;;16.30;99.90;;;;;;4908275;29;20036;-89
2022/04/14 09:15:00;;;;;;;18.50;12.93;;;16.40;99.90;;;;;;4905788;29;20047;-89
2022/04/14 09:17:27;;;;;;;18.35;12.88;;;16.30;99.90;;;;;;4877275;29;20044;-90
2022/04/14 09:19:53;;;;;;;17.38;12.85;;;16.40;99.90;;;;;;4879343;29;20450;-90
2022/04/14 09:22:20;;;;;;;16.75;12.38;;;16.50;99.90;;;;;;4879004;29;20112;-89
2022/04/14 09:24:55;;;;;;;20.67;12.52;;;16.50;99.90;;;;;;4893109;29;20108;-89
2022/04/14 09:27:30;;;;;;;17.92;11.48;;;16.60;99.90;;;;;;4893216;29;20589;-89
2022/04/14 09:29:58;;;;;;;17.23;11.45;;;16.60;99.90;;;;;;4876259;29;20048;-88
2022/04/14 09:32:43;;;;;;;15.93;8.90;;;16.60;99.90;;;;;;4875240;29;20047;-89
2022/04/14 09:35:16;;;;;;;13.73;8.85;;;16.60;99.90;;;;;;4886166;29;20048;-88
2022/04/14 09:37:42;;;;;;;13.15;7.90;;;16.70;99.90;;;;;;4892225;29;20398;-88
2022/04/14 09:40:09;;;;;;;15.50;7.38;;;16.80;99.90;;;;;;4863510;29;20033;-88
2022/04/14 09:42:37;;;;;;;13.27;7.22;;;16.90;99.90;;;;;;4876579;29;20048;-88
2022/04/14 09:45:17;;;;;;;17.30;7.78;;;17.10;99.90;;;;;;4892952;29;20147;-88
2022/04/14 09:47:43;;;;;;;13.55;7.55;;;17.20;99.90;;;;;;4876479;29;20123;-89
2022/04/14 09:50:29;;;;;;;12.65;6.55;;;17.30;99.90;;;;;;4877164;29;20176;-89
2022/04/14 09:53:08;;;;;;;12.70;6.10;;;17.20;99.90;;;;;;4891778;29;20084;-89
2022/04/14 09:55:35;;;;;;;12.73;6.65;;;17.10;99.90;;;;;;4891618;29;20037;-89
2022/04/14 09:58:14;;;;;;;13.00;6.82;;;17.20;99.90;;;;;;4892621;29;20056;-88
2022/04/14 10:00:55;;;;;;;12.43;6.72;;;17.30;99.90;;;;;;4877499;29;20037;-89
2022/04/14 10:03:26;;;;;;;14.25;6.88;;;17.30;99.90;;;;;;4876295;29;20057;-89
2022/04/14 10:05:57;;;;;;;11.40;6.95;;;17.30;99.90;;;;;;4891378;29;20105;-89
2022/04/14 10:08:24;;;;;;;14.10;7.28;;;17.30;99.90;;;;;;4898781;29;20123;-88
2022/04/14 10:11:03;;;;;;;14.05;6.95;;;17.50;99.90;;;;;;4893873;29;20421;-88
2022/04/14 10:13:40;;;;;;;11.63;6.30;;;17.70;99.90;;;;;;4907705;29;20116;-89
2022/04/14 10:16:10;;;;;;;12.30;6.18;;;17.90;99.90;;;;;;4876300;29;20551;-89
2022/04/14 10:18:36;;;;;;;12.18;5.90;;;17.80;99.90;;;;;;4879769;29;20052;-89
2022/04/14 10:21:05;;;;;;;10.77;5.18;;;17.70;99.90;;;;;;4912038;29;20461;-88
2022/04/14 10:23:32;;;;;;;10.95;5.70;;;17.40;99.90;;;;;;4895329;29;20473;-88
2022/04/14 10:25:58;;;;;;;12.90;6.32;;;17.20;99.90;;;;;;4896469;29;20084;-89
2022/04/14 10:28:26;;;;;;;10.18;5.68;;;17.20;99.90;;;;;;4879827;29;20092;-87
2022/04/14 10:30:55;;;;;;;11.45;5.93;;;17.30;99.90;;;;;;4911005;29;20032;-87
2022/04/14 10:33:22;;;;;;;13.90;6.53;;;17.60;99.90;;;;;;4880327;29;20041;-87
2022/04/14 10:35:51;;;;;;;11.70;6.07;;;17.90;99.90;;;;;;4895576;29;20187;-87
2022/04/14 10:38:38;;;;;;;18.48;7.13;;;18.00;99.90;;;;;;4891702;29;20112;-88
2022/04/14 10:41:21;;;;;;;12.70;6.60;;;17.60;99.90;;;;;;4894513;29;20048;-88
2022/04/14 10:43:47;;;;;;;14.70;6.47;;;17.40;99.90;;;;;;4878885;29;20482;-88
2022/04/14 10:46:17;;;;;;;10.85;5.80;;;17.60;99.90;;;;;;4892153;29;20051;-88
2022/04/14 10:48:46;;;;;;;11.77;5.10;;;17.80;99.90;;;;;;4894834;29;20044;-88
2022/04/14 10:51:24;;;;;;;11.45;5.55;;;17.80;99.90;;;;;;4895231;29;20127;-88
2022/04/14 10:54:09;;;;;;;11.35;5.38;;;17.90;99.90;;;;;;4893967;29;20422;-88
2022/04/14 10:56:38;;;;;;;10.57;5.20;;;18.10;99.90;;;;;;4899170;29;20052;-88
2022/04/14 10:59:05;;;;;;;9.48;4.43;;;18.30;99.90;;;;;;4894917;29;20123;-88
2022/04/14 11:01:46;;;;;;;9.80;4.60;;;18.00;99.90;;;;;;4892761;29;20045;-89
2022/04/14 11:04:40;;;;;;;8.40;3.55;;;17.90;99.90;;;;;;4893304;29;20132;-88
2022/04/14 11:07:10;;;;;;;10.93;3.78;;;18.00;99.90;;;;;;4894438;29;20048;-88
2022/04/14 11:09:41;;;;;;;10.68;4.25;;;17.90;99.90;;;;;;4893439;29;20051;-88
2022/04/14 11:12:11;;;;;;;10.20;4.03;;;17.90;99.90;;;;;;4894339;29;20098;-89
2022/04/14 11:14:58;;;;;;;9.65;4.60;;;17.80;99.90;;;;;;4879242;29;20052;-89
2022/04/14 11:17:48;;;;;;;11.40;5.28;;;17.50;99.90;;;;;;4887395;29;20122;-88
2022/04/14 11:20:21;;;;;;;11.30;6.00;;;17.50;99.90;;;;;;4894116;29;20064;-88
2022/04/14 11:23:07;;;;;;;14.50;6.45;;;17.20;99.90;;;;;;4894610;29;20043;-88
2022/04/14 11:25:42;;;;;;;12.95;6.47;;;17.00;99.90;;;;;;4909292;29;20591;-89
2022/04/14 11:28:22;;;;;;;11.68;5.95;;;17.20;99.90;;;;;;4894117;29;20076;-88
2022/04/14 11:30:50;;;;;;;12.98;5.50;;;17.10;99.90;;;;;;4878458;29;20044;-88
2022/04/14 11:33:28;;;;;;;11.95;5.18;;;16.90;99.90;;;;;;4898859;29;20339;-88
2022/04/14 11:36:16;;;;;;;11.00;4.80;;;16.70;99.90;;;;;;4888970;29;20158;-88
2022/04/14 11:38:58;;;;;;;10.88;4.68;;;16.60;99.90;;;;;;4893949;29;20048;-90
2022/04/14 11:41:33;;;;;;;11.73;4.72;;;16.80;99.90;;;;;;4878889;29;20040;-88
2022/04/14 11:44:20;;;;;;;10.48;4.05;;;16.90;99.90;;;;;;4912272;29;20129;-90
2022/04/14 11:46:47;;;;;;;10.60;4.28;;;17.00;99.90;;;;;;4894272;29;20480;-88
2022/04/14 11:49:15;;;;;;;9.85;4.45;;;17.20;99.90;;;;;;4894154;29;20108;-88
2022/04/14 11:51:47;;;;;;;10.90;3.78;;;17.40;99.90;;;;;;4892940;29;20045;-89
2022/04/14 11:54:19;;;;;;;10.50;3.83;;;17.60;99.90;;;;;;4891098;29;20068;-89
2022/04/14 11:56:52;;;;;;;9.65;3.70;;;17.70;99.90;;;;;;4891003;29;20482;-87
2022/04/14 11:59:39;;;;;;;9.82;3.72;;;17.60;99.90;;;;;;4878589;29;20045;-89
2022/04/14 12:02:18;;;;;;;9.35;3.65;;;17.60;99.90;;;;;;4862911;29;20040;-91
2022/04/14 12:04:43;;;;;;;8.88;3.53;;;17.70;99.90;;;;;;4877544;29;20139;-88
2022/04/14 12:07:09;;;;;;;9.38;3.47;;;17.70;99.90;;;;;;4897073;29;20127;-90
2022/04/14 12:09:37;;;;;;;9.45;4.28;;;17.60;99.90;;;;;;4893697;29;20458;-89
2022/04/14 12:12:13;;;;;;;10.07;3.33;;;17.40;99.90;;;;;;4863366;29;20051;-89
2022/04/14 12:14:44;;;;;;;10.75;3.78;;;17.00;99.90;;;;;;4863343;29;20584;-88
2022/04/14 12:17:10;;;;;;;8.93;4.00;;;17.10;99.90;;;;;;4905316;29;20045;-88
2022/04/14 12:19:56;;;;;;;10.60;4.32;;;17.10;99.90;;;;;;4878023;29;20533;-88
2022/04/14 12:22:25;;;;;;;11.27;4.30;;;17.40;99.90;;;;;;4877906;29;20044;-88
2022/04/14 12:24:59;;;;;;;9.95;3.78;;;17.50;99.90;;;;;;4875216;29;20135;-89
2022/04/14 12:27:37;;;;;;;8.95;3.17;;;17.50;99.90;;;;;;4894531;29;20529;-88
2022/04/14 12:30:14;;;;;;;11.27;3.78;;;17.40;99.90;;;;;;4882636;29;20038;-89
2022/04/14 12:32:42;;;;;;;11.35;4.57;;;17.40;99.90;;;;;;4892690;29;20120;-88
2022/04/14 12:35:10;;;;;;;11.13;4.65;;;17.10;99.90;;;;;;4893171;29;20037;-88
2022/04/14 12:37:40;;;;;;;11.18;5.20;;;16.90;99.90;;;;;;4863381;29;20078;-89